createdAt,value
2023-03-27T00:00:27.170Z,8.44
2023-03-27T00:02:54.653Z,8.54
2023-03-27T00:05:22.108Z,8.49
2023-03-27T00:07:51.734Z,8.21
2023-03-27T00:10:18.786Z,8.49
2023-03-27T00:12:45.740Z,7.57
2023-03-27T00:15:17.605Z,8.65
2023-03-27T00:17:47.708Z,8.41
2023-03-27T00:20:17.382Z,8.19
2023-03-27T00:22:44.415Z,8.35
2023-03-27T00:25:11.729Z,8.54
2023-03-27T00:27:38.759Z,8.05
2023-03-27T00:30:06.516Z,8.52
2023-03-27T00:32:34.048Z,8.39
2023-03-27T00:35:01.167Z,8.30
2023-03-27T00:37:28.241Z,8.14
2023-03-27T00:39:55.776Z,8.47
2023-03-27T00:42:24.253Z,8.42
2023-03-27T00:44:52.831Z,8.34
2023-03-27T00:47:34.262Z,8.15
2023-03-27T00:50:06.734Z,8.23
2023-03-27T00:52:33.837Z,8.02
2023-03-27T00:55:24.832Z,7.82
2023-03-27T00:58:41.844Z,8.33
2023-03-27T01:01:27.315Z,8.29
2023-03-27T01:03:54.916Z,7.95
2023-03-27T01:06:22.365Z,7.93
2023-03-27T01:08:49.480Z,7.99
2023-03-27T01:11:22.939Z,8.16
2023-03-27T01:14:00.940Z,8.25
2023-03-27T01:16:36.045Z,8.01
2023-03-27T01:19:03.013Z,8.13
2023-03-27T01:21:52.019Z,8.14
2023-03-27T01:24:38.588Z,8.02
2023-03-27T01:27:10.618Z,8.07
2023-03-27T01:29:47.052Z,7.99
2023-03-27T01:32:38.773Z,7.78
2023-03-27T01:35:20.795Z,7.76
2023-03-27T01:38:09.817Z,7.77
2023-03-27T01:40:44.102Z,7.82
2023-03-27T01:43:19.180Z,7.59
2023-03-27T01:45:54.748Z,7.74
2023-03-27T01:48:39.934Z,7.87
2023-03-27T01:51:17.137Z,7.88
2023-03-27T01:54:13.848Z,7.77
2023-03-27T01:57:22.830Z,7.72
2023-03-27T02:00:17.576Z,7.77
2023-03-27T02:03:16.061Z,7.81
2023-03-27T02:05:53.201Z,7.76
2023-03-27T02:08:30.775Z,7.63
2023-03-27T02:11:08.366Z,7.63
2023-03-27T02:14:10.109Z,7.68
2023-03-27T02:16:46.373Z,7.37
2023-03-27T02:19:21.061Z,7.42
2023-03-27T02:21:49.525Z,7.48
2023-03-27T02:24:18.921Z,7.77
2023-03-27T02:26:55.520Z,7.92
2023-03-27T02:29:45.757Z,7.77
2023-03-27T02:32:19.268Z,7.98
2023-03-27T02:35:23.887Z,7.78
2023-03-27T02:38:30.914Z,7.58
2023-03-27T02:41:34.781Z,7.94
2023-03-27T02:44:31.817Z,7.96
2023-03-27T02:47:11.939Z,7.70
2023-03-27T02:49:56.306Z,7.82
2023-03-27T02:52:48.320Z,7.82
2023-03-27T02:55:42.332Z,7.53
2023-03-27T02:58:53.854Z,7.37
2023-03-27T03:01:46.942Z,7.60
2023-03-27T03:04:25.382Z,7.73
2023-03-27T03:06:58.989Z,7.46
2023-03-27T03:09:26.079Z,7.38
2023-03-27T03:11:54.427Z,7.28
2023-03-27T03:14:26.803Z,7.53
2023-03-27T03:16:53.821Z,7.42
2023-03-27T03:19:24.062Z,7.17
2023-03-27T03:21:51.280Z,7.36
2023-03-27T03:24:19.102Z,7.09
2023-03-27T03:26:50.107Z,7.32
2023-03-27T03:29:21.553Z,7.42
2023-03-27T03:32:06.430Z,7.50
2023-03-27T03:34:33.488Z,7.41
2023-03-27T03:37:00.516Z,7.44
2023-03-27T03:39:31.115Z,7.46
2023-03-27T03:41:58.060Z,7.29
2023-03-27T03:44:24.913Z,7.39
2023-03-27T03:46:53.138Z,7.18
2023-03-27T03:49:21.580Z,7.45
2023-03-27T03:52:03.402Z,7.35
2023-03-27T03:54:52.866Z,7.65
2023-03-27T03:57:56.913Z,7.44
2023-03-27T04:00:58.910Z,7.55
2023-03-27T04:04:08.922Z,7.43
2023-03-27T04:07:06.794Z,7.49
2023-03-27T04:09:38.171Z,7.39
2023-03-27T04:12:08.554Z,7.17
2023-03-27T04:14:46.092Z,7.01
2023-03-27T04:17:35.936Z,7.08
2023-03-27T04:20:06.164Z,7.10
2023-03-27T04:22:37.905Z,7.32
2023-03-27T04:25:08.543Z,7.40
2023-03-27T04:27:35.800Z,7.16
2023-03-27T04:30:16.255Z,7.17
2023-03-27T04:33:06.430Z,6.95
2023-03-27T04:35:40.125Z,7.05
2023-03-27T04:38:17.143Z,7.05
2023-03-27T04:40:49.448Z,6.94
2023-03-27T04:43:17.986Z,6.82
2023-03-27T04:45:48.331Z,7.31
2023-03-27T04:48:16.068Z,7.16
2023-03-27T04:50:51.353Z,7.17
2023-03-27T04:53:52.981Z,7.02
2023-03-27T04:56:53.962Z,7.17
2023-03-27T04:59:37.156Z,6.93
2023-03-27T05:02:45.096Z,7.05
2023-03-27T05:06:03.010Z,6.70
2023-03-27T05:08:44.769Z,7.07
2023-03-27T05:11:23.027Z,7.09
2023-03-27T05:14:09.933Z,7.24
2023-03-27T05:16:52.340Z,6.76
2023-03-27T05:19:21.164Z,6.99
2023-03-27T05:22:17.954Z,7.17
2023-03-27T05:25:27.952Z,7.17
2023-03-27T05:28:11.478Z,7.44
2023-03-27T05:30:38.570Z,7.36
2023-03-27T05:33:17.628Z,7.37
2023-03-27T05:35:48.424Z,6.75
2023-03-27T05:38:16.370Z,7.48
2023-03-27T05:40:53.361Z,7.28
2023-03-27T05:43:41.949Z,7.61
2023-03-27T05:46:23.191Z,7.72
2023-03-27T05:49:00.182Z,7.23
2023-03-27T05:51:48.038Z,7.82
2023-03-27T05:54:48.985Z,7.58
2023-03-27T05:57:29.463Z,7.91
2023-03-27T06:00:00.282Z,7.82
2023-03-27T06:02:27.890Z,8.03
2023-03-27T06:05:01.470Z,8.21
2023-03-27T06:07:34.351Z,7.76
2023-03-27T06:10:07.740Z,8.13
2023-03-27T06:12:46.436Z,8.58
2023-03-27T06:15:29.449Z,8.48
2023-03-27T06:18:09.786Z,8.51
2023-03-27T06:20:39.037Z,9.03
2023-03-27T06:23:08.466Z,9.32
2023-03-27T06:25:39.501Z,10.17
2023-03-27T06:28:35.075Z,10.57
2023-03-27T06:31:37.063Z,11.38
2023-03-27T06:34:24.075Z,11.95
2023-03-27T06:37:04.444Z,11.91
2023-03-27T06:39:37.638Z,12.49
2023-03-27T06:42:07.757Z,12.36
2023-03-27T06:44:43.720Z,12.26
2023-03-27T06:47:44.390Z,11.63
2023-03-27T06:50:38.537Z,13.06
2023-03-27T06:53:42.153Z,12.35
2023-03-27T06:56:24.524Z,11.43
2023-03-27T06:59:10.432Z,12.03
2023-03-27T07:01:59.065Z,13.14
2023-03-27T07:05:08.493Z,12.42
2023-03-27T07:07:41.680Z,11.74
2023-03-27T07:10:12.300Z,12.47
2023-03-27T07:13:02.008Z,12.43
2023-03-27T07:15:42.657Z,12.87
2023-03-27T07:18:11.532Z,12.67
2023-03-27T07:20:38.965Z,12.78
2023-03-27T07:23:11.934Z,12.24
2023-03-27T07:26:14.041Z,12.32
2023-03-27T07:29:35.983Z,12.11
2023-03-27T07:32:34.175Z,12.62
2023-03-27T07:35:05.548Z,13.00
2023-03-27T07:38:03.264Z,13.17
2023-03-27T07:40:39.835Z,12.59
2023-03-27T07:43:37.154Z,13.06
2023-03-27T07:46:25.027Z,13.19
2023-03-27T07:49:39.934Z,13.41
2023-03-27T07:52:44.183Z,12.58
2023-03-27T07:55:45.051Z,12.62
2023-03-27T07:58:25.877Z,12.75
2023-03-27T08:01:02.668Z,12.86
2023-03-27T08:03:32.408Z,12.33
2023-03-27T08:06:01.235Z,13.50
2023-03-27T08:08:30.905Z,12.71
2023-03-27T08:11:02.544Z,13.13
2023-03-27T08:13:34.476Z,13.30
2023-03-27T08:16:12.558Z,13.17
2023-03-27T08:18:39.618Z,12.85
2023-03-27T08:21:09.403Z,13.31
2023-03-27T08:23:51.127Z,13.22
2023-03-27T08:27:02.053Z,13.29
2023-03-27T08:29:47.699Z,13.18
2023-03-27T08:32:14.726Z,12.44
2023-03-27T08:34:43.810Z,13.38
2023-03-27T08:37:11.421Z,13.99
2023-03-27T08:40:05.086Z,13.86
2023-03-27T08:43:09.066Z,14.41
2023-03-27T08:46:15.097Z,14.16
2023-03-27T08:49:15.134Z,14.17
2023-03-27T08:52:08.924Z,13.60
2023-03-27T08:55:05.128Z,13.75
2023-03-27T08:58:14.072Z,14.63
2023-03-27T09:01:18.943Z,14.94
2023-03-27T09:04:12.917Z,15.03
2023-03-27T09:07:00.987Z,15.04
2023-03-27T09:09:39.127Z,15.26
2023-03-27T09:13:04.226Z,15.54
2023-03-27T09:16:29.134Z,15.10
2023-03-27T09:19:25.830Z,15.10
2023-03-27T09:22:02.728Z,16.03
2023-03-27T09:25:50.321Z,16.43
2023-03-27T09:28:59.403Z,16.86
2023-03-27T09:31:32.981Z,16.16
2023-03-27T09:34:07.230Z,16.25
2023-03-27T09:36:36.052Z,15.73
2023-03-27T09:39:29.060Z,16.44
2023-03-27T09:42:41.237Z,16.90
2023-03-27T09:45:12.748Z,15.84
2023-03-27T09:48:02.232Z,16.70
2023-03-27T09:50:46.215Z,16.64
2023-03-27T09:53:50.121Z,16.85
2023-03-27T09:56:35.483Z,16.91
2023-03-27T09:59:19.551Z,17.07
2023-03-27T10:01:48.412Z,16.86
2023-03-27T10:04:20.317Z,16.67
2023-03-27T10:07:17.164Z,16.96
2023-03-27T10:10:38.115Z,16.90
2023-03-27T10:13:47.034Z,15.77
2023-03-27T10:16:21.040Z,16.86
2023-03-27T10:19:05.773Z,16.25
2023-03-27T10:21:44.724Z,16.06
2023-03-27T10:24:49.148Z,17.12
2023-03-27T10:27:52.953Z,17.30
2023-03-27T10:30:38.126Z,17.08
2023-03-27T10:33:41.417Z,16.67
2023-03-27T10:37:01.226Z,17.10
2023-03-27T10:40:03.228Z,17.20
2023-03-27T10:42:48.881Z,16.58
2023-03-27T10:45:18.953Z,17.27
2023-03-27T10:47:51.853Z,17.24
2023-03-27T10:50:45.648Z,16.92
2023-03-27T10:54:03.250Z,16.87
2023-03-27T10:56:57.128Z,17.22
2023-03-27T10:59:50.826Z,16.90
2023-03-27T11:02:58.301Z,17.48
2023-03-27T11:05:37.299Z,17.12
2023-03-27T11:08:23.937Z,17.02
2023-03-27T11:11:22.374Z,17.64
2023-03-27T11:14:47.144Z,17.21
2023-03-27T11:17:38.775Z,17.42
2023-03-27T11:20:46.042Z,17.24
2023-03-27T11:24:10.350Z,17.22
2023-03-27T11:26:57.295Z,16.69
2023-03-27T11:29:32.233Z,17.51
2023-03-27T11:32:27.174Z,17.23
2023-03-27T11:35:27.838Z,17.24
2023-03-27T11:38:21.840Z,17.70
2023-03-27T11:41:00.125Z,16.86
2023-03-27T11:43:27.743Z,16.46
2023-03-27T11:46:16.081Z,17.72
2023-03-27T11:48:56.664Z,17.20
2023-03-27T11:51:32.741Z,17.70
2023-03-27T11:54:35.208Z,17.25
2023-03-27T11:57:40.203Z,17.20
2023-03-27T12:00:36.616Z,17.18
2023-03-27T12:03:26.046Z,17.52
2023-03-27T12:06:46.173Z,17.40
2023-03-27T12:09:59.796Z,17.52
2023-03-27T12:13:03.165Z,17.07
2023-03-27T12:15:52.056Z,17.09
2023-03-27T12:18:35.905Z,17.44
2023-03-27T12:21:14.158Z,17.47
2023-03-27T12:24:17.237Z,17.90
2023-03-27T12:28:03.975Z,17.62
2023-03-27T12:31:16.439Z,17.56
2023-03-27T12:34:03.367Z,17.74
2023-03-27T12:36:48.363Z,17.54
2023-03-27T12:39:26.589Z,17.38
2023-03-27T12:41:57.666Z,17.14
2023-03-27T12:44:32.615Z,17.18
2023-03-27T12:47:20.222Z,17.12
2023-03-27T12:50:27.556Z,17.91
2023-03-27T12:52:57.230Z,16.84
2023-03-27T12:55:51.304Z,17.07
2023-03-27T12:58:43.143Z,16.89
2023-03-27T13:04:37.054Z,17.60
2023-03-27T13:07:14.064Z,17.76
2023-03-27T13:10:11.969Z,17.91
2023-03-27T13:13:18.583Z,18.10
2023-03-27T13:16:01.525Z,18.31
2023-03-27T13:18:37.866Z,18.12
2023-03-27T13:21:52.706Z,17.56
2023-03-27T13:24:52.268Z,17.74
2023-03-27T13:28:43.145Z,17.65
2023-03-27T13:31:47.189Z,17.75
2023-03-27T13:34:37.457Z,17.85
2023-03-27T13:37:14.778Z,17.99
2023-03-27T13:40:02.266Z,17.73
2023-03-27T13:42:41.996Z,17.61
2023-03-27T13:45:19.577Z,17.76
2023-03-27T13:48:26.338Z,17.49
2023-03-27T13:51:20.109Z,17.71
2023-03-27T13:54:17.641Z,17.80
2023-03-27T13:57:37.237Z,17.80
2023-03-27T14:00:57.979Z,18.04
2023-03-27T14:03:49.977Z,17.73
2023-03-27T14:06:49.083Z,17.61
2023-03-27T14:09:51.867Z,17.70
2023-03-27T14:13:05.988Z,17.20
2023-03-27T14:16:25.302Z,17.66
2023-03-27T14:19:07.764Z,16.92
2023-03-27T14:22:01.025Z,17.77
2023-03-27T14:24:56.306Z,17.29
2023-03-27T14:29:05.296Z,17.42
2023-03-27T14:32:09.534Z,17.69
2023-03-27T14:35:14.294Z,17.68
2023-03-27T14:38:25.351Z,17.58
2023-03-27T14:40:59.135Z,17.64
2023-03-27T14:43:50.106Z,17.61
2023-03-27T14:46:20.183Z,17.65
2023-03-27T14:48:52.697Z,17.54
2023-03-27T14:51:33.916Z,17.52
2023-03-27T14:54:41.870Z,17.25
2023-03-27T14:57:57.776Z,17.21
2023-03-27T15:01:08.404Z,17.42
2023-03-27T15:04:18.530Z,17.47
2023-03-27T15:07:15.496Z,17.19
2023-03-27T15:10:10.376Z,17.42
2023-03-27T15:12:57.620Z,17.23
2023-03-27T15:15:27.307Z,17.39
2023-03-27T15:18:15.582Z,16.96
2023-03-27T15:21:27.323Z,16.79
2023-03-27T15:24:37.375Z,17.30
2023-03-27T15:27:41.466Z,17.07
2023-03-27T15:30:20.628Z,15.46
2023-03-27T15:32:52.608Z,16.74
2023-03-27T15:35:34.445Z,16.55
2023-03-27T15:38:03.228Z,16.75
2023-03-27T15:40:40.904Z,16.84
2023-03-27T15:43:16.554Z,16.92
2023-03-27T15:46:04.805Z,16.82
2023-03-27T15:48:40.656Z,16.79
2023-03-27T15:51:11.691Z,16.33
2023-03-27T15:54:02.500Z,16.62
2023-03-27T15:57:09.746Z,16.59
2023-03-27T15:59:53.639Z,16.34
2023-03-27T16:02:23.608Z,16.23
2023-03-27T16:04:57.027Z,16.26
2023-03-27T16:07:39.322Z,16.48
2023-03-27T16:10:07.709Z,16.30
2023-03-27T16:12:43.676Z,16.46
2023-03-27T16:15:45.416Z,16.32
2023-03-27T16:18:38.372Z,16.30
2023-03-27T16:21:40.297Z,15.87
2023-03-27T16:24:41.354Z,15.61
2023-03-27T16:27:47.326Z,15.94
2023-03-27T16:30:36.225Z,15.91
2023-03-27T16:33:03.978Z,15.85
2023-03-27T16:35:34.492Z,15.75
2023-03-27T16:38:02.139Z,14.80
2023-03-27T16:40:29.396Z,15.71
2023-03-27T16:42:56.417Z,15.46
2023-03-27T16:45:23.442Z,14.61
2023-03-27T16:47:53.055Z,15.07
2023-03-27T16:50:22.987Z,15.45
2023-03-27T16:56:12.372Z,14.59
2023-03-27T16:59:13.369Z,14.75
2023-03-27T17:01:54.935Z,14.98
2023-03-27T17:04:42.379Z,14.42
2023-03-27T17:07:27.277Z,14.69
2023-03-27T17:09:54.871Z,14.88
2023-03-27T17:12:22.028Z,14.12
2023-03-27T17:15:09.377Z,14.48
2023-03-27T17:17:50.602Z,14.03
2023-03-27T17:20:17.664Z,14.12
2023-03-27T17:22:45.732Z,13.12
2023-03-27T17:25:32.435Z,14.22
2023-03-27T17:28:33.372Z,13.85
2023-03-27T17:31:15.573Z,13.80
2023-03-27T17:33:42.655Z,13.77
2023-03-27T17:36:11.617Z,13.97
2023-03-27T17:38:41.909Z,13.79
2023-03-27T17:41:11.900Z,13.28
2023-03-27T17:43:39.664Z,13.43
2023-03-27T17:46:10.606Z,13.31
2023-03-27T17:48:37.915Z,13.65
2023-03-27T17:51:11.120Z,13.58
2023-03-27T17:53:59.510Z,12.71
2023-03-27T17:56:41.097Z,13.22
2023-03-27T17:59:10.488Z,12.52
2023-03-27T18:01:37.584Z,12.94
2023-03-27T18:04:24.513Z,13.03
2023-03-27T18:07:25.415Z,13.25
2023-03-27T18:10:08.563Z,12.95
2023-03-27T18:12:55.385Z,12.86
2023-03-27T18:15:36.140Z,13.11
2023-03-27T18:18:03.659Z,12.85
2023-03-27T18:20:30.991Z,12.80
2023-03-27T18:22:57.901Z,12.72
2023-03-27T18:25:48.389Z,12.87
2023-03-27T18:28:28.971Z,12.88
2023-03-27T18:31:00.862Z,12.91
2023-03-27T18:33:28.869Z,12.95
2023-03-27T18:35:57.379Z,12.58
2023-03-27T18:38:26.486Z,12.76
2023-03-27T18:41:13.415Z,12.37
2023-03-27T18:43:54.196Z,12.10
2023-03-27T18:46:21.272Z,12.15
2023-03-27T18:48:49.419Z,12.16
2023-03-27T18:51:36.420Z,11.93
2023-03-27T18:54:37.443Z,12.27
2023-03-27T18:57:21.500Z,12.21
2023-03-27T18:59:51.928Z,11.82
2023-03-27T19:02:24.525Z,11.48
2023-03-27T19:05:14.035Z,12.04
2023-03-27T19:08:19.488Z,12.05
2023-03-27T19:11:21.464Z,12.14
2023-03-27T19:14:28.040Z,11.82
2023-03-27T19:17:29.470Z,11.98
2023-03-27T19:20:07.463Z,11.33
2023-03-27T19:22:36.509Z,11.31
2023-03-27T19:25:28.580Z,9.81
2023-03-27T19:28:27.456Z,11.82
2023-03-27T19:30:54.425Z,11.29
2023-03-27T19:33:21.943Z,11.49
2023-03-27T19:35:52.635Z,10.64
2023-03-27T19:38:19.599Z,11.65
2023-03-27T19:41:06.546Z,11.03
2023-03-27T19:43:46.974Z,11.10
2023-03-27T19:46:16.125Z,11.46
2023-03-27T19:49:03.430Z,11.39
2023-03-27T19:52:07.622Z,11.42
2023-03-27T19:54:54.482Z,10.94
2023-03-27T19:57:34.974Z,10.94
2023-03-27T20:00:02.034Z,11.25
2023-03-27T20:02:29.443Z,10.28
2023-03-27T20:05:16.465Z,10.60
2023-03-27T20:08:17.564Z,11.01
2023-03-27T20:11:18.432Z,10.86
2023-03-27T20:13:59.665Z,10.45
2023-03-27T20:16:27.891Z,10.51
2023-03-27T20:19:03.376Z,10.67
2023-03-27T20:21:34.137Z,10.13
2023-03-27T20:24:01.311Z,10.32
2023-03-27T20:26:56.469Z,9.91
2023-03-27T20:29:36.986Z,10.47
2023-03-27T20:32:05.784Z,10.10
2023-03-27T20:34:34.799Z,9.13
2023-03-27T20:37:12.020Z,9.22
2023-03-27T20:39:47.256Z,9.93
2023-03-27T20:42:16.746Z,10.19
2023-03-27T20:44:45.127Z,10.06
2023-03-27T20:47:13.350Z,9.38
2023-03-27T20:49:57.495Z,9.26
2023-03-27T20:52:58.637Z,9.92
2023-03-27T20:55:59.399Z,9.69
2023-03-27T20:59:00.546Z,9.64
2023-03-27T21:02:02.490Z,9.58
2023-03-27T21:05:03.569Z,9.23
2023-03-27T21:07:31.994Z,9.68
2023-03-27T21:10:01.339Z,9.56
2023-03-27T21:12:29.041Z,8.89
2023-03-27T21:14:56.057Z,8.91
2023-03-27T21:17:43.628Z,9.40
2023-03-27T21:20:44.605Z,9.07
2023-03-27T21:23:25.381Z,9.39
2023-03-27T21:26:12.529Z,9.17
2023-03-27T21:28:53.469Z,9.39
2023-03-27T21:31:40.602Z,9.42
2023-03-27T21:34:41.510Z,9.03
2023-03-27T21:37:21.976Z,9.15
2023-03-27T21:39:48.830Z,9.00
2023-03-27T21:42:16.564Z,9.32
2023-03-27T21:44:45.215Z,9.24
2023-03-27T21:47:15.521Z,9.07
2023-03-27T21:49:42.419Z,9.13
2023-03-27T21:52:29.529Z,8.80
2023-03-27T21:55:30.569Z,9.19
2023-03-27T21:58:31.524Z,9.22
2023-03-27T22:01:33.102Z,9.07
2023-03-27T22:04:33.575Z,9.05
2023-03-27T22:07:14.122Z,8.54
2023-03-27T22:10:01.544Z,8.64
2023-03-27T22:12:42.360Z,8.60
2023-03-27T22:15:10.093Z,8.41
2023-03-27T22:17:38.130Z,8.61
2023-03-27T22:20:06.335Z,8.64
2023-03-27T22:22:37.329Z,8.64
2023-03-27T22:25:05.057Z,8.56
2023-03-27T22:27:53.523Z,8.30
2023-03-27T22:30:54.613Z,7.79
2023-03-27T22:33:36.452Z,8.03
2023-03-27T22:36:05.214Z,7.48
2023-03-27T22:38:33.362Z,8.35
2023-03-27T22:41:00.980Z,8.10
2023-03-27T22:43:29.091Z,8.03
2023-03-27T22:45:56.532Z,8.21
2023-03-27T22:48:23.512Z,8.07
2023-03-27T22:51:11.514Z,8.08
2023-03-27T22:54:12.544Z,7.98
2023-03-27T22:57:13.638Z,7.84
2023-03-27T22:59:54.297Z,8.01
2023-03-27T23:02:21.597Z,8.11
2023-03-27T23:04:48.562Z,7.26
2023-03-27T23:07:15.500Z,7.49
2023-03-27T23:09:42.430Z,7.57
2023-03-27T23:12:09.409Z,7.10
2023-03-27T23:14:36.432Z,7.75
2023-03-27T23:17:03.568Z,7.76
2023-03-27T23:19:30.890Z,7.05
2023-03-27T23:21:57.898Z,7.06
2023-03-27T23:24:24.841Z,7.59
2023-03-27T23:27:11.612Z,7.70
2023-03-27T23:30:12.632Z,7.52
2023-03-27T23:33:13.559Z,6.85
2023-03-27T23:36:01.778Z,7.05
2023-03-27T23:38:29.109Z,7.19
2023-03-27T23:40:57.775Z,6.75
2023-03-27T23:43:26.113Z,6.89
2023-03-27T23:45:53.810Z,6.83
2023-03-27T23:48:20.773Z,6.42
2023-03-27T23:50:48.276Z,6.66
2023-03-27T23:53:36.571Z,6.27
2023-03-27T23:56:37.627Z,6.06
2023-03-27T23:59:18.090Z,6.08
